Bremerton National Airport Bremerton US
ICAO: KPWT
IATA: PWT
Category: Medium
Scheduled Services: No

Elevation: 444 ft
TransAlt. 18000 ft.

Airport Communications:
SEATTLE APP/DEP:127.1
AWOS 3:121.2
CTAF/UNICOM:123.05

KPWT Zoom In..

If you have problems with the map follow the link
https://www.worldairports.se/pages/airport.php?
ICAO=KPWT

Runways:

(A) RW 02 length 6000 ft width 150 ft
---- / hdg 17

(B) RW 20 length 6000 ft width 150 ft
ILS 111.10 / hdg 197

Location; KPWT
Day. 10 / Time. 02.56 Zulu
* Altimeter: 30.20
* Temperature: 6/° c. 42.8°f.
* Wind from: VRB° Speed 03 kn.
Dewpoint: //° c.
Visibility: 10 Statute Miles.
Clouds: Overcast 800 ft.

KPWT 100256Z AUTO VRB03KT 10SM OVC008 06/04 A3020 RMK AO2 SLP245 6//// T00560044 51002 PNO $


Wind From VRB°
Speed 03 kn.

 
 
jpsmedia worldairports.se 2019   terms of use